createdAt,value
2022-10-20T00:00:23.513Z,11.90
2022-10-20T00:02:50.710Z,12.45
2022-10-20T00:05:17.889Z,12.80
2022-10-20T00:07:44.812Z,12.45
2022-10-20T00:10:11.735Z,12.30
2022-10-20T00:12:38.970Z,12.35
2022-10-20T00:15:06.330Z,12.75
2022-10-20T00:17:33.245Z,12.32
2022-10-20T00:20:00.240Z,11.55
2022-10-20T00:22:27.193Z,13.30
2022-10-20T00:24:54.202Z,12.85
2022-10-20T00:27:21.194Z,12.07
2022-10-20T00:29:48.983Z,12.98
2022-10-20T00:32:16.263Z,13.35
2022-10-20T00:34:43.251Z,12.68
2022-10-20T00:37:10.195Z,12.75
2022-10-20T00:39:37.253Z,12.27
2022-10-20T00:42:04.948Z,13.70
2022-10-20T00:44:54.491Z,13.38
2022-10-20T00:47:35.856Z,12.85
2022-10-20T00:50:11.413Z,13.18
2022-10-20T00:52:40.473Z,12.30
2022-10-20T00:55:09.991Z,11.95
2022-10-20T00:57:38.208Z,12.45
2022-10-20T01:04:23.983Z,12.20
2022-10-20T01:06:51.165Z,12.00
2022-10-20T01:09:18.696Z,11.85
2022-10-20T01:11:52.350Z,12.90
2022-10-20T01:14:22.463Z,11.50
2022-10-20T01:17:09.077Z,13.43
2022-10-20T01:19:36.037Z,12.48
2022-10-20T01:22:14.630Z,12.25
2022-10-20T01:25:05.931Z,12.57
2022-10-20T01:27:54.237Z,11.23
2022-10-20T01:30:23.041Z,11.95
2022-10-20T01:33:16.803Z,11.57
2022-10-20T01:36:11.390Z,12.13
2022-10-20T01:38:47.382Z,12.05
2022-10-20T01:41:40.649Z,12.02
2022-10-20T01:44:11.697Z,13.25
2022-10-20T01:46:41.335Z,12.13
2022-10-20T01:49:09.091Z,13.35
2022-10-20T01:51:36.166Z,13.10
2022-10-20T01:54:03.132Z,13.77
2022-10-20T01:56:42.815Z,13.30
2022-10-20T01:59:36.011Z,13.23
2022-10-20T02:02:20.751Z,14.50
2022-10-20T02:05:23.049Z,13.50
2022-10-20T02:07:50.528Z,14.73
2022-10-20T02:10:29.715Z,15.05
2022-10-20T02:13:00.364Z,15.35
2022-10-20T02:15:30.132Z,16.08
2022-10-20T02:20:31.287Z,14.13
2022-10-20T02:23:00.444Z,15.82
2022-10-20T02:25:29.891Z,16.95
2022-10-20T02:30:27.250Z,17.77
2022-10-20T02:32:54.221Z,17.60
2022-10-20T02:35:26.274Z,16.52
2022-10-20T02:37:53.152Z,19.33
2022-10-20T02:40:22.084Z,19.73
2022-10-20T02:42:49.325Z,19.53
2022-10-20T02:45:16.485Z,20.02
2022-10-20T02:47:43.512Z,22.58
2022-10-20T02:50:10.840Z,21.25
2022-10-20T02:52:38.064Z,24.50
2022-10-20T02:55:06.187Z,25.38
2022-10-20T02:57:33.573Z,26.77
2022-10-20T03:00:00.666Z,26.45
2022-10-20T03:02:27.555Z,27.20
2022-10-20T03:04:54.620Z,25.92
2022-10-20T03:07:21.565Z,28.55
2022-10-20T03:09:49.038Z,29.20
2022-10-20T03:12:15.987Z,30.52
2022-10-20T03:14:43.024Z,30.33
2022-10-20T03:17:10.161Z,30.48
2022-10-20T03:19:37.136Z,30.40
2022-10-20T03:22:04.045Z,29.38
2022-10-20T03:24:31.008Z,27.65
2022-10-20T03:26:57.918Z,31.33
2022-10-20T03:29:24.840Z,33.47
2022-10-20T03:31:51.703Z,34.40
2022-10-20T03:34:18.770Z,36.30
2022-10-20T03:36:45.659Z,30.48
2022-10-20T03:39:12.676Z,31.80
2022-10-20T03:41:39.626Z,31.52
2022-10-20T03:44:06.604Z,31.55
2022-10-20T03:46:33.591Z,31.85
2022-10-20T03:49:00.488Z,30.85
2022-10-20T03:51:27.376Z,32.70
2022-10-20T03:53:54.448Z,31.90
2022-10-20T03:56:22.028Z,31.67
2022-10-20T03:58:48.979Z,31.48
2022-10-20T04:01:18.164Z,33.58
2022-10-20T04:03:45.173Z,32.33
2022-10-20T04:06:13.701Z,33.08
2022-10-20T04:08:41.154Z,34.33
2022-10-20T04:11:08.605Z,32.63
2022-10-20T04:13:35.659Z,32.25
2022-10-20T04:16:02.609Z,32.47
2022-10-20T04:18:30.480Z,30.63
2022-10-20T04:20:57.531Z,28.95
2022-10-20T04:23:24.456Z,29.40
2022-10-20T04:25:51.553Z,28.77
2022-10-20T04:28:20.626Z,28.45
2022-10-20T04:30:49.234Z,28.55
2022-10-20T04:33:16.984Z,27.17
2022-10-20T04:35:44.233Z,28.52
2022-10-20T04:38:11.410Z,28.75
2022-10-20T04:40:38.429Z,28.95
2022-10-20T04:43:05.428Z,28.52
2022-10-20T04:45:32.375Z,28.25
2022-10-20T04:47:59.342Z,29.27
2022-10-20T04:50:26.259Z,28.60
2022-10-20T04:53:07.540Z,28.63
2022-10-20T04:55:35.228Z,28.42
2022-10-20T04:58:02.243Z,28.55
2022-10-20T05:00:29.133Z,28.40
2022-10-20T05:02:56.188Z,25.67
2022-10-20T05:05:23.251Z,29.42
2022-10-20T05:07:50.145Z,29.58
2022-10-20T05:18:56.019Z,26.13
2022-10-20T05:21:27.342Z,27.08
2022-10-20T05:24:02.220Z,26.08
2022-10-20T05:26:34.376Z,29.02
2022-10-20T05:29:04.438Z,28.00
2022-10-20T05:31:31.623Z,27.70
2022-10-20T05:33:58.631Z,27.63
2022-10-20T05:36:27.259Z,29.63
2022-10-20T05:38:56.196Z,28.70
2022-10-20T05:41:26.591Z,28.43
2022-10-20T05:43:58.334Z,28.88
2022-10-20T05:46:27.639Z,29.00
2022-10-20T05:48:56.742Z,28.25
2022-10-20T05:51:26.384Z,27.58
2022-10-20T05:56:23.206Z,26.33
2022-10-20T05:58:50.426Z,27.63
2022-10-20T06:01:26.537Z,25.55
2022-10-20T06:03:56.121Z,25.88
2022-10-20T06:06:28.517Z,24.75
2022-10-20T06:08:56.467Z,25.92
2022-10-20T06:11:23.938Z,26.00
2022-10-20T06:13:52.957Z,26.13
2022-10-20T06:16:22.415Z,25.35
2022-10-20T06:18:49.808Z,25.42
2022-10-20T06:21:22.619Z,27.83
2022-10-20T06:23:50.490Z,26.83
2022-10-20T06:26:25.494Z,27.80
2022-10-20T06:28:57.587Z,27.88
2022-10-20T06:31:32.241Z,27.60
2022-10-20T06:33:59.892Z,26.80
2022-10-20T06:36:27.722Z,26.60
2022-10-20T06:38:56.893Z,28.13
2022-10-20T06:41:25.613Z,26.42
2022-10-20T06:43:58.324Z,28.63
2022-10-20T06:46:27.652Z,26.45
2022-10-20T06:48:58.555Z,26.25
2022-10-20T06:51:26.240Z,26.70
2022-10-20T06:53:53.593Z,26.42
2022-10-20T06:56:23.740Z,25.40
2022-10-20T06:58:52.980Z,26.38
2022-10-20T07:01:23.392Z,25.95
2022-10-20T07:03:53.328Z,25.58
2022-10-20T07:08:48.758Z,24.90
2022-10-20T07:11:19.252Z,24.35
2022-10-20T07:13:46.612Z,28.13
2022-10-20T07:16:16.409Z,25.08
2022-10-20T07:21:22.519Z,23.98
2022-10-20T07:23:50.959Z,24.75
2022-10-20T07:26:31.645Z,23.30
2022-10-20T07:29:00.896Z,26.88
2022-10-20T07:31:34.853Z,24.25
2022-10-20T07:34:27.942Z,24.27
2022-10-20T07:36:50.209Z,26.05
2022-10-20T07:39:17.213Z,24.70
2022-10-20T07:41:45.705Z,24.08
2022-10-20T07:44:13.267Z,23.67
2022-10-20T07:46:40.227Z,24.35
2022-10-20T07:49:31.435Z,23.85
2022-10-20T07:51:54.102Z,24.15
2022-10-20T07:54:21.069Z,24.25
2022-10-20T07:56:48.138Z,24.63
2022-10-20T07:59:15.333Z,26.05
2022-10-20T08:01:42.761Z,24.15
2022-10-20T08:04:09.912Z,24.40
2022-10-20T08:06:39.187Z,25.60
2022-10-20T08:09:07.404Z,23.58
2022-10-20T08:11:35.271Z,22.90
2022-10-20T08:14:02.732Z,21.63
2022-10-20T08:16:30.275Z,23.02
2022-10-20T08:18:59.847Z,24.50
2022-10-20T08:21:26.851Z,23.75
2022-10-20T08:23:53.803Z,23.67
2022-10-20T08:26:26.367Z,22.63
2022-10-20T08:28:55.174Z,22.63
2022-10-20T08:31:23.251Z,23.98
2022-10-20T08:33:52.812Z,23.10
2022-10-20T08:38:48.753Z,20.10
2022-10-20T08:41:22.492Z,23.02
2022-10-20T08:43:52.003Z,21.60
2022-10-20T08:46:23.131Z,21.17
2022-10-20T08:48:50.663Z,21.73
2022-10-20T08:51:31.730Z,20.63
2022-10-20T08:54:01.287Z,21.27
2022-10-20T08:56:31.342Z,20.35
2022-10-20T08:58:58.420Z,19.95
2022-10-20T09:01:29.321Z,20.17
2022-10-20T09:03:58.865Z,19.90
2022-10-20T09:06:26.027Z,19.60
2022-10-20T09:08:54.753Z,18.92
2022-10-20T09:11:25.751Z,18.27
2022-10-20T09:13:53.718Z,18.80
2022-10-20T09:16:55.660Z,19.05
2022-10-20T09:19:25.832Z,19.73
2022-10-20T09:21:59.244Z,19.88
2022-10-20T09:24:30.244Z,21.20
2022-10-20T09:27:15.942Z,18.85
2022-10-20T09:29:42.989Z,19.15
2022-10-20T09:32:45.973Z,18.17
2022-10-20T09:35:29.642Z,19.23
2022-10-20T09:38:15.906Z,18.10
2022-10-20T09:41:08.197Z,17.40
2022-10-20T09:43:37.353Z,16.45
2022-10-20T09:46:07.022Z,18.00
2022-10-20T09:48:39.884Z,17.85
2022-10-20T09:51:15.325Z,20.92
2022-10-20T09:54:16.637Z,17.40
2022-10-20T09:56:44.977Z,16.02
2022-10-20T09:59:49.690Z,15.88
2022-10-20T10:02:16.566Z,16.08
2022-10-20T10:04:46.145Z,16.00
2022-10-20T10:07:32.296Z,16.25
2022-10-20T10:10:03.919Z,16.17
2022-10-20T10:12:37.827Z,14.93
2022-10-20T10:15:23.668Z,14.95
2022-10-20T10:17:51.209Z,15.60
2022-10-20T10:20:18.156Z,15.52
2022-10-20T10:22:45.294Z,15.00
2022-10-20T10:25:19.940Z,15.15
2022-10-20T10:28:03.291Z,14.77
2022-10-20T10:30:40.829Z,13.25
2022-10-20T10:33:28.780Z,14.40
2022-10-20T10:35:57.051Z,15.07
2022-10-20T10:38:24.087Z,14.63
2022-10-20T10:41:09.822Z,13.23
2022-10-20T10:43:55.167Z,13.52
2022-10-20T10:46:33.673Z,13.65
2022-10-20T10:49:06.659Z,14.02
2022-10-20T10:51:42.470Z,14.30
2022-10-20T10:54:27.987Z,13.00
2022-10-20T10:56:59.623Z,12.80
2022-10-20T10:59:42.655Z,12.98
2022-10-20T11:03:00.989Z,12.63
2022-10-20T11:05:46.796Z,12.40
2022-10-20T11:08:23.197Z,12.88
2022-10-20T11:10:55.920Z,12.40
2022-10-20T11:13:40.431Z,11.85
2022-10-20T11:16:35.355Z,11.80
2022-10-20T11:19:33.202Z,11.65
2022-10-20T11:22:18.120Z,11.52
2022-10-20T11:25:17.478Z,12.05
2022-10-20T11:27:44.901Z,12.35
2022-10-20T11:30:19.444Z,12.05
2022-10-20T11:32:54.345Z,11.80
2022-10-20T11:35:29.402Z,11.43
2022-10-20T11:38:25.397Z,11.98
2022-10-20T11:41:29.103Z,11.30
2022-10-20T11:44:13.424Z,12.05
2022-10-20T11:46:54.393Z,11.57
2022-10-20T11:49:21.682Z,11.80
2022-10-20T11:52:03.557Z,12.82
2022-10-20T11:55:11.380Z,11.63
2022-10-20T11:58:01.267Z,11.63
2022-10-20T12:00:44.715Z,11.27
2022-10-20T12:03:30.593Z,11.68
2022-10-20T12:06:21.650Z,11.73
2022-10-20T12:08:54.392Z,11.95
2022-10-20T12:11:56.445Z,11.57
2022-10-20T12:14:49.989Z,12.00
2022-10-20T12:17:25.841Z,11.48
2022-10-20T12:19:52.890Z,12.25
2022-10-20T12:22:29.152Z,11.73
2022-10-20T12:24:56.080Z,10.80
2022-10-20T12:27:27.649Z,12.15
2022-10-20T12:29:56.295Z,11.55
2022-10-20T12:32:25.992Z,11.20
2022-10-20T12:35:14.996Z,12.25
2022-10-20T12:37:44.997Z,11.68
2022-10-20T12:40:14.009Z,11.68
2022-10-20T12:42:48.356Z,10.95
2022-10-20T12:45:18.413Z,11.35
2022-10-20T12:52:23.609Z,11.57
2022-10-20T12:55:19.317Z,10.57
2022-10-20T12:57:47.036Z,10.20
2022-10-20T13:00:19.722Z,10.25
2022-10-20T13:02:49.375Z,10.18
2022-10-20T13:05:18.293Z,9.20
2022-10-20T13:07:48.288Z,10.67
2022-10-20T13:10:27.406Z,11.05
2022-10-20T13:13:20.173Z,10.02
2022-10-20T13:15:53.322Z,10.10
2022-10-20T13:19:12.021Z,10.80
2022-10-20T13:21:39.139Z,9.75
2022-10-20T13:24:18.230Z,10.43
2022-10-20T13:26:50.235Z,9.90
2022-10-20T13:29:27.793Z,10.02
2022-10-20T13:32:04.239Z,12.00
2022-10-20T13:34:43.281Z,10.07
2022-10-20T13:37:29.891Z,10.10
2022-10-20T13:40:25.845Z,10.30
2022-10-20T13:43:19.877Z,11.20
2022-10-20T13:45:49.507Z,11.02
2022-10-20T13:48:54.040Z,11.18
2022-10-20T13:51:31.946Z,11.63
2022-10-20T13:54:02.738Z,11.68
2022-10-20T13:56:46.121Z,11.75
2022-10-20T14:03:47.297Z,11.02
2022-10-20T14:06:29.429Z,11.88
2022-10-20T14:08:58.196Z,10.82
2022-10-20T14:11:34.432Z,11.57
2022-10-20T14:14:02.242Z,11.65
2022-10-20T14:16:31.239Z,11.98
2022-10-20T14:19:12.871Z,12.67
2022-10-20T14:25:39.575Z,12.25
2022-10-20T14:28:07.720Z,11.70
2022-10-20T14:30:38.725Z,12.43
2022-10-20T14:33:16.114Z,12.57
2022-10-20T14:35:52.756Z,16.27
2022-10-20T14:38:37.984Z,14.38
2022-10-20T14:41:07.755Z,14.70
2022-10-20T14:43:40.608Z,13.07
2022-10-20T14:46:10.324Z,13.30
2022-10-20T14:48:50.249Z,13.13
2022-10-20T14:51:36.007Z,13.00
2022-10-20T14:54:21.422Z,13.15
2022-10-20T14:56:56.062Z,13.90
2022-10-20T14:59:25.349Z,14.65
2022-10-20T15:02:11.625Z,15.25
2022-10-20T15:04:46.320Z,13.60
2022-10-20T15:07:28.287Z,18.80
2022-10-20T15:10:09.459Z,16.05
2022-10-20T15:12:36.647Z,15.27
2022-10-20T15:15:12.846Z,14.95
2022-10-20T15:17:45.108Z,14.35
2022-10-20T15:20:35.156Z,14.13
2022-10-20T15:23:10.708Z,15.75
2022-10-20T15:25:48.827Z,14.50
2022-10-20T15:28:30.698Z,13.98
2022-10-20T15:30:59.165Z,14.48
2022-10-20T15:33:26.320Z,14.48
2022-10-20T15:35:53.609Z,17.20
2022-10-20T15:38:20.968Z,14.88
2022-10-20T15:40:48.517Z,14.70
2022-10-20T15:43:19.547Z,14.43
2022-10-20T15:45:53.339Z,13.30
2022-10-20T15:48:20.541Z,13.15
2022-10-20T15:50:47.549Z,14.07
2022-10-20T15:53:14.548Z,13.77
2022-10-20T15:55:42.769Z,14.13
2022-10-20T15:58:09.905Z,13.95
2022-10-20T16:00:37.435Z,15.05
2022-10-20T16:03:05.552Z,15.13
2022-10-20T16:05:32.899Z,14.25
2022-10-20T16:08:00.055Z,15.20
2022-10-20T16:10:31.353Z,15.75
2022-10-20T16:12:58.504Z,14.45
2022-10-20T16:15:30.501Z,14.48
2022-10-20T16:18:13.498Z,15.20
2022-10-20T16:21:38.520Z,15.85
2022-10-20T16:24:05.701Z,15.60
2022-10-20T16:26:32.751Z,16.27
2022-10-20T16:33:28.364Z,17.60
2022-10-20T16:35:55.362Z,16.92
2022-10-20T16:38:22.428Z,18.05
2022-10-20T16:41:06.177Z,19.85
2022-10-20T16:43:36.456Z,17.30
2022-10-20T16:46:15.233Z,17.40
2022-10-20T16:48:44.029Z,17.20
2022-10-20T16:51:15.280Z,17.63
2022-10-20T16:53:42.583Z,15.93
2022-10-20T16:56:09.629Z,15.95
2022-10-20T16:58:36.746Z,16.85
2022-10-20T17:01:08.634Z,17.67
2022-10-20T17:03:36.554Z,16.02
2022-10-20T17:10:22.080Z,16.88
2022-10-20T17:15:17.036Z,22.42
2022-10-20T17:17:43.991Z,22.63
2022-10-20T17:24:14.246Z,17.80
2022-10-20T17:29:16.584Z,17.58
2022-10-20T17:36:15.260Z,16.83
2022-10-20T17:38:43.059Z,16.70
2022-10-20T17:41:13.313Z,17.58
2022-10-20T17:43:41.173Z,17.88
2022-10-20T17:46:12.046Z,16.85
2022-10-20T17:48:39.305Z,17.05
2022-10-20T17:51:11.659Z,17.20
2022-10-20T17:54:52.789Z,17.55
2022-10-20T17:57:19.763Z,17.85
2022-10-20T17:59:52.985Z,18.23
2022-10-20T18:02:23.733Z,18.80
2022-10-20T18:04:51.310Z,19.00
2022-10-20T18:07:18.417Z,20.50
2022-10-20T18:09:45.333Z,18.95
2022-10-20T18:12:12.571Z,18.20
2022-10-20T18:14:51.737Z,18.55
2022-10-20T18:17:18.733Z,19.08
2022-10-20T18:19:45.704Z,17.77
2022-10-20T18:22:12.678Z,17.48
2022-10-20T18:24:39.844Z,18.08
2022-10-20T18:27:06.867Z,18.33
2022-10-20T18:29:33.865Z,17.73
2022-10-20T18:32:00.836Z,16.95
2022-10-20T18:34:27.831Z,18.25
2022-10-20T18:36:55.580Z,19.42
2022-10-20T18:39:22.727Z,16.63
2022-10-20T18:41:54.787Z,18.35
2022-10-20T18:44:21.922Z,18.25
2022-10-20T18:46:49.017Z,17.70
2022-10-20T18:49:20.533Z,18.92
2022-10-20T18:51:48.188Z,17.73
2022-10-20T18:54:15.588Z,18.13
2022-10-20T18:56:43.116Z,17.45
2022-10-20T18:59:14.055Z,16.67
2022-10-20T19:01:41.709Z,17.35
2022-10-20T19:04:10.166Z,16.98
2022-10-20T19:06:43.238Z,16.23
2022-10-20T19:09:14.540Z,15.98
2022-10-20T19:11:42.337Z,16.95
2022-10-20T19:14:45.226Z,17.05
2022-10-20T19:17:12.168Z,17.20
2022-10-20T19:19:41.729Z,18.08
2022-10-20T19:22:11.738Z,19.23
2022-10-20T19:24:40.664Z,18.85
2022-10-20T19:27:25.624Z,18.87
2022-10-20T19:29:55.959Z,17.98
2022-10-20T19:32:22.995Z,16.50
2022-10-20T19:34:49.959Z,18.02
2022-10-20T19:37:16.972Z,17.42
2022-10-20T19:39:44.010Z,19.35
2022-10-20T19:42:11.464Z,17.65
2022-10-20T19:44:39.079Z,18.35
2022-10-20T19:47:06.643Z,18.63
2022-10-20T19:49:34.107Z,17.30
2022-10-20T19:52:01.247Z,17.58
2022-10-20T19:54:28.747Z,20.80
2022-10-20T19:56:55.825Z,20.90
2022-10-20T19:59:22.919Z,23.08
2022-10-20T20:02:15.681Z,20.40
2022-10-20T20:04:42.728Z,19.10
2022-10-20T20:07:09.741Z,19.05
2022-10-20T20:09:36.739Z,20.30
2022-10-20T20:12:03.870Z,21.27
2022-10-20T20:14:30.875Z,19.60
2022-10-20T20:16:58.018Z,19.60
2022-10-20T20:19:25.193Z,19.67
2022-10-20T20:21:52.236Z,19.55
2022-10-20T20:24:19.209Z,19.85
2022-10-20T20:26:47.157Z,19.63
2022-10-20T20:29:14.141Z,19.45
2022-10-20T20:31:41.180Z,19.23
2022-10-20T20:34:08.277Z,18.75
2022-10-20T20:36:35.325Z,18.80
2022-10-20T20:39:02.616Z,17.67
2022-10-20T20:41:32.673Z,18.05
2022-10-20T20:44:02.896Z,16.80
2022-10-20T20:46:33.734Z,18.63
2022-10-20T20:49:02.287Z,17.80
2022-10-20T20:51:33.411Z,18.58
2022-10-20T20:54:01.269Z,18.27
2022-10-20T20:56:28.225Z,19.77
2022-10-20T20:58:55.763Z,18.83
2022-10-20T21:01:28.170Z,18.80
2022-10-20T21:03:57.266Z,20.35
2022-10-20T21:06:33.188Z,20.20
2022-10-20T21:09:01.501Z,20.13
2022-10-20T21:11:29.897Z,21.55
2022-10-20T21:13:59.050Z,21.13
2022-10-20T21:16:34.502Z,21.17
2022-10-20T21:19:08.110Z,20.08
2022-10-20T21:21:50.404Z,19.85
2022-10-20T21:24:18.704Z,19.45
2022-10-20T21:26:45.679Z,21.17
2022-10-20T21:29:12.741Z,19.73
2022-10-20T21:31:40.783Z,20.65
2022-10-20T21:34:07.789Z,19.40
2022-10-20T21:36:37.864Z,19.40
2022-10-20T21:39:06.945Z,19.40
2022-10-20T21:41:36.120Z,19.50
2022-10-20T21:44:05.090Z,18.38
2022-10-20T21:46:33.164Z,19.15
2022-10-20T21:49:06.060Z,18.27
2022-10-20T21:51:35.855Z,19.88
2022-10-20T21:54:08.564Z,19.05
2022-10-20T21:56:54.608Z,19.95
2022-10-20T21:59:29.865Z,18.27
2022-10-20T22:02:01.692Z,19.05
2022-10-20T22:04:30.278Z,18.98
2022-10-20T22:06:57.696Z,18.13
2022-10-20T22:09:24.921Z,18.80
2022-10-20T22:11:59.621Z,18.77
2022-10-20T22:14:27.034Z,19.60
2022-10-20T22:16:55.627Z,19.23
2022-10-20T22:19:23.871Z,18.10
2022-10-20T22:21:52.112Z,17.95
2022-10-20T22:24:20.448Z,18.15
2022-10-20T22:26:49.395Z,20.13
2022-10-20T22:29:16.418Z,19.63
2022-10-20T22:31:43.563Z,18.23
2022-10-20T22:38:30.204Z,18.30
2022-10-20T22:41:01.210Z,18.00
2022-10-20T22:43:29.287Z,19.35
2022-10-20T22:45:56.696Z,19.55
2022-10-20T22:48:23.989Z,19.13
2022-10-20T22:50:51.038Z,19.17
2022-10-20T22:53:18.015Z,18.88
2022-10-20T22:55:45.244Z,18.52
2022-10-20T22:58:12.266Z,19.63
2022-10-20T23:01:12.927Z,18.50
2022-10-20T23:03:40.395Z,17.60
2022-10-20T23:06:13.473Z,17.67
2022-10-20T23:08:43.218Z,17.80
2022-10-20T23:11:11.250Z,17.98
2022-10-20T23:13:38.251Z,18.70
2022-10-20T23:16:05.586Z,18.27
2022-10-20T23:18:32.683Z,16.75
2022-10-20T23:20:59.829Z,15.68
2022-10-20T23:23:26.879Z,15.75
2022-10-20T23:25:53.866Z,16.88
2022-10-20T23:28:20.860Z,16.00
2022-10-20T23:30:48.261Z,16.15
2022-10-20T23:33:15.563Z,16.88
2022-10-20T23:35:42.756Z,17.73
2022-10-20T23:38:10.488Z,18.48
2022-10-20T23:40:37.753Z,18.80
2022-10-20T23:43:05.133Z,18.23
2022-10-20T23:45:35.443Z,18.90
2022-10-20T23:48:04.856Z,19.10
2022-10-20T23:50:32.328Z,20.55
2022-10-20T23:52:59.329Z,19.75
2022-10-20T23:55:26.281Z,19.33
2022-10-20T23:57:53.468Z,19.55
